Flight Track Log - Related Links

Times and Time Zones

All times are in EST time to prevent confusion due to time zone crossing. See the N867DS flight status page for this flight to view local times or setup timezone preferences in your user account.

Time Position Orientation Groundspeed Altitude Reporting Facility
EST Latitude Longitude Course Direction KTS MPH feet Rate Location/Type
Tue 08:26:00 AM 26.3184 -81.5770 45° Northeast  Level FlightAware Approximate
Tue 08:27:00 AM 26.3521 -81.5389 45° Northeast  Level FlightAware Approximate
Tue 08:28:00 AM 26.3857 -81.5008 45° Northeast  Level FlightAware Approximate
Tue 08:28:41 AM 26.3561 -81.4147 39° Northeast 156 180 4,900  Level Miami Center
Tue 08:29:00 AM 26.4193 -81.4627 45° Northeast  Level FlightAware Approximate
Tue 08:29:41 AM 26.3739 -81.3736 64° Northeast 143 165 5,000  Level Miami Center
Tue 08:30:00 AM 26.4529 -81.4245 45° Northeast  Level FlightAware Approximate
Tue 08:30:41 AM 26.3919 -81.3350 62° Northeast 143 165 5,100  Level Miami Center
Tue 08:31:00 AM 26.4864 -81.3864 45° Northeast  Level FlightAware Approximate
Tue 08:31:41 AM 26.4078 -81.2936 67° East 143 165 5,100  Level Miami Center
Tue 08:32:41 AM 26.4258 -81.2528 64° Northeast 138 159 5,000 -100 Descending Miami Center
Tue 08:33:41 AM 26.4458 -81.2117 61° Northeast 138 159 4,900 -50 Descending Miami Center
Tue 08:34:41 AM 26.4594 -81.1728 69° East 138 159 4,900  Level Miami Center
Tue 08:35:41 AM 26.4753 -81.1317 67° East 138 159 4,900  Level Miami Center
Tue 08:36:41 AM 26.4911 -81.0903 67° East 138 159 4,900 50 Level Miami Center
Tue 08:37:41 AM 26.5069 -81.0469 68° East 138 159 5,000 50 Climbing Miami Center
Tue 08:38:41 AM 26.5247 -81.0081 63° Northeast 146 168 5,000 -50 Level Miami Center
Tue 08:39:41 AM 26.5406 -80.9667 67° East 146 168 4,900  Descending Miami Center
Tue 08:40:41 AM 26.5561 -80.9347 61° Northeast 136 157 5,000  Climbing Miami Center
Tue 08:41:41 AM 26.5803 -80.8914 58° Northeast 136 157 4,900 -50 Descending Miami Center
Tue 08:42:41 AM 26.6000 -80.8528 60° Northeast 141 162 4,900  Level Miami Center
Tue 08:43:41 AM 26.6117 -80.8089 73° East 136 157 4,900 50 Level Miami Center
Tue 08:44:41 AM 26.6253 -80.7678 70° East 136 157 5,000 50 Climbing Miami Center
Tue 08:45:41 AM 26.6369 -80.7261 73° East 131 151 5,000 -200 Level Miami Center
Tue 08:46:41 AM 26.6506 -80.6872 69° East 136 157 4,600 -600 Descending Miami Center
Tue 08:47:41 AM 26.6642 -80.6458 70° East 136 157 3,800 -700 Descending Miami Center
Tue 08:48:41 AM 26.6858 -80.6092 57° Northeast 136 157 3,200 -450 Descending Miami Center
Tue 08:49:41 AM 26.7097 -80.5797 48° Northeast 136 157 2,900 -50 Descending Miami Center
Tue 08:50:41 AM 26.7314 -80.5503 51° Northeast 130 150 3,100 -50 Climbing Miami Center
Tue 08:51:41 AM 26.7550 -80.5183 50° Northeast 131 151 2,800 -300 Descending Miami Center
Tue 08:53:00 AM 26.7684 -80.4669 74° East  Level FlightAware Approximate
Tue 09:00:00 AM 26.8333 -80.2167 66° East  Level FlightAware Approximate
Tue 09:01:00 AM 26.8459 -80.2223 66° East  Level Estimated
Tue 09:02:00 AM 26.8459 -80.2223 66° East  Level Estimated
Tue 09:03:00 AM 26.8459 -80.2223 66° East  Level Estimated
Tue 09:04:00 AM 26.8459 -80.2223 66° East  Level Estimated
Tue 09:05:00 AM 26.8459 -80.2223 66° East  Level Estimated
Tue 09:06:00 AM 26.8459 -80.2223 66° East  Level Estimated
Tue 09:07:00 AM 26.8459 -80.2223 66° East  Level Estimated
Tue 09:08:00 AM 26.8459 -80.2223 66° East  Level Estimated
Tue 09:09:00 AM 26.8459 -80.2223 66° East  Level Estimated
Tue 09:10:00 AM 26.8459 -80.2223 66° East  Level Estimated
Tue 09:11:00 AM 26.8459 -80.2223 66° East  Level Estimated
Tue 09:12:00 AM 26.8459 -80.2223 66° East  Level Estimated
Tue 09:13:00 AM 26.8459 -80.2223 66° East  Level Estimated
Tue 09:14:00 AM 26.8459 -80.2223 66° East  Level Estimated
Tue 09:15:00 AM 26.8459 -80.2223 66° East  Level Estimated
Tue 09:16:00 AM 26.8459 -80.2223 66° East  Level Estimated
Tue 09:17:00 AM 26.8459 -80.2223 66° East  Level Estimated
Tue 09:18:00 AM 26.8459 -80.2223 66° East  Level Estimated
Tue 09:19:00 AM 26.8459 -80.2223 66° East  Level Estimated
Tue 09:20:00 AM 26.8459 -80.2223 66° East  Level Estimated

Login

Don't have an account? Register now (free) for customized features, flight alerts, and more!